Latest Weather Observations for Williamtown

IDN60901

Issued at 10:01 pm EDT Thursday 23 November 2017 (issued every 10 minutes, with the page automatically refreshed every 10 minutes)

About weather observations | Map of Sydney area stations | Latest observations for Sydney area | Other Formats
Station Details ID: 061078 Name: WILLIAMTOWN RAAF Lat: -32.79 Lon: 151.84 Height: 7.5 m
Data from the previous 72 hours. | See also: Recent months at Williamtown
Date/Time
EDT
Temp
°C
App
Temp
°C
Dew
Point
°C
Rel
Hum
%
Delta-T
°C
Wind Press
QNH
hPa
Press
MSL
hPa
Rain since
9am
mm
Dir  Spd
km/h
Gust
km/h
Spd
kts
Gust
kts
23/10:00pm 20.3 18.6 13.7 66 3.8 NE 15 17 8 9 1016.2 1016.1 -
23/09:30pm 20.7 18.6 13.6 64 4.1 NE 17 26 9 14 1016.1 1016.0 0.0
23/09:00pm 21.0 19.2 14.4 66 3.8 NE 17 24 9 13 1015.9 1015.8 0.0
23/08:30pm 21.3 20.2 15.4 69 3.5 NE 15 20 8 11 1015.7 1015.6 0.0
23/08:00pm 21.5 20.6 15.8 70 3.4 NE 15 22 8 12 1015.3 1015.2 0.0
23/07:30pm 22.0 20.7 15.8 68 3.7 ENE 17 24 9 13 1014.9 1014.8 0.0
23/07:00pm 23.3 21.3 15.4 61 4.7 ENE 20 28 11 15 1014.4 1014.3 0.0
23/06:30pm 24.1 21.6 15.1 57 5.4 ENE 22 33 12 18 1014.1 1014.0 0.0
23/06:00pm 24.6 21.7 16.1 59 5.2 ENE 26 33 14 18 1013.9 1013.8 0.0
23/05:30pm 24.5 21.1 15.7 58 5.3 ENE 28 35 15 19 1013.7 1013.6 0.0
23/05:00pm 25.4 22.6 15.4 54 6.0 ENE 24 32 13 17 1013.7 1013.6 0.0
23/04:30pm 25.7 22.5 14.2 49 6.8 ENE 24 35 13 19 1014.0 1013.9 0.0
23/04:00pm 25.4 21.3 13.9 49 6.8 ENE 28 37 15 20 1014.2 1014.1 0.0
23/03:30pm 26.2 23.8 14.3 48 7.1 ENE 20 33 11 18 1014.1 1014.0 0.0
23/03:00pm 25.9 22.6 15.0 51 6.6 ESE 26 37 14 20 1014.5 1014.4 0.0
23/02:30pm 24.9 22.0 15.2 54 5.8 E 24 37 13 20 1015.0 1014.9 0.0
23/02:00pm 25.2 22.3 16.1 57 5.6 ESE 26 35 14 19 1015.4 1015.3 0.0
23/01:30pm 24.7 22.2 16.2 59 5.2 ESE 24 33 13 18 1015.8 1015.7 0.0
23/01:00pm 23.9 20.6 15.1 58 5.3 SE 26 32 14 17 1016.3 1016.2 0.0
23/12:30pm 25.1 22.0 16.5 59 5.3 SE 28 33 15 18 1016.6 1016.5 0.0
23/12:00pm 24.4 22.1 15.6 58 5.3 ESE 22 30 12 16 1016.7 1016.6 0.0
23/11:30am 24.3 21.6 15.5 58 5.3 SE 24 32 13 17 1017.0 1016.9 0.0
23/11:00am 24.2 23.3 14.9 56 5.5 SE 13 24 7 13 1017.3 1017.2 0.0
23/10:30am 23.3 22.8 13.8 55 5.5 NE 9 15 5 8 1017.5 1017.4 0.0
23/10:00am 22.9 21.9 14.5 59 4.9 N 13 17 7 9 1017.6 1017.5 0.0
23/09:30am 22.5 21.2 13.8 58 5.1 NE 13 17 7 9 1017.6 1017.5 0.0
23/09:00am 22.3 21.2 14.2 60 4.7 ENE 13 19 7 10 1017.8 1017.7 0.0
23/08:30am 21.6 21.6 15.2 67 3.8 NNE 9 13 5 7 1017.7 1017.6 0.0
23/08:00am 20.0 20.7 14.6 71 3.1 NE 4 7 2 4 1017.7 1017.6 0.0
23/07:30am 19.1 19.8 15.6 80 2.1 E 6 7 3 4 1017.4 1017.3 0.0
23/07:00am 17.1 18.7 14.9 87 1.3 CALM 0 0 0 0 1017.3 1017.2 0.0
23/06:30am 14.8 16.0 13.7 93 0.6 CALM 0 0 0 0 1017.1 1017.0 0.0
23/06:00am 13.9 14.8 13.0 94 0.5 CALM 0 0 0 0 1016.7 1016.6 0.0
23/05:30am 13.7 14.5 12.6 93 0.6 CALM 0 0 0 0 1016.5 1016.4 0.0
23/05:00am 13.4 14.1 12.1 92 0.7 CALM 0 0 0 0 1016.3 1016.2 0.0
23/04:30am 14.9 16.1 13.8 93 0.6 CALM 0 0 0 0 1016.1 1016.0 0.0
23/04:00am 15.9 16.2 14.9 94 0.6 ENE 7 7 4 4 1016.2 1016.1 0.0
23/03:30am 16.3 16.7 15.3 94 0.6 NE 7 9 4 5 1016.2 1016.1 0.0
23/03:00am 16.2 17.9 15.2 94 0.6 CALM 0 9 0 5 1016.6 1016.5 0.0
23/02:30am 15.5 16.7 13.9 90 0.9 CALM 0 0 0 0 1016.6 1016.5 0.0
23/02:00am 16.7 17.3 15.2 91 0.9 E 6 7 3 4 1016.8 1016.7 0.0
23/01:30am 17.1 17.6 15.6 91 0.9 E 7 9 4 5 1017.0 1016.9 0.0
23/01:00am 17.0 17.4 15.2 89 1.0 ENE 7 9 4 5 1017.2 1017.1 0.0
23/12:30am 17.6 17.7 15.6 88 1.2 E 9 11 5 6 1017.5 1017.4 0.0
23/12:00am 17.9 17.9 15.3 85 1.5 E 9 11 5 6 1017.7 1017.6 0.0
 
Date/Time
EDT
Temp
°C
App
Temp
°C
Dew
Point
°C
Rel
Hum
%
Delta-T
°C
Wind Press
QNH
hPa
Press
MSL
hPa
Rain since
9am
mm
Dir  Spd
km/h
Gust
km/h
Spd
kts
Gust
kts
22/11:30pm 18.0 18.1 15.4 85 1.5 E 9 11 5 6 1017.7 1017.6 0.0
22/11:00pm 18.1 18.8 15.5 85 1.5 E 6 9 3 5 1018.0 1017.9 0.0
22/10:30pm 18.4 18.4 15.3 82 1.8 E 9 13 5 7 1018.2 1018.1 0.0
22/10:00pm 18.2 18.2 15.3 83 1.7 ESE 9 13 5 7 1018.3 1018.2 0.0
22/09:30pm 18.7 18.8 15.6 82 1.8 E 9 13 5 7 1018.4 1018.3 0.0
22/09:00pm 18.9 19.0 15.4 80 2.1 E 9 13 5 7 1018.4 1018.3 0.0
22/08:30pm 18.9 18.7 15.6 81 1.9 ENE 11 15 6 8 1018.3 1018.2 0.0
22/08:00pm 19.3 18.8 16.0 81 2.0 E 13 19 7 10 1018.2 1018.1 0.0
22/07:30pm 19.7 18.8 15.8 78 2.3 E 15 20 8 11 1018.1 1018.0 0.0
22/07:00pm 20.0 18.1 15.2 74 2.8 ESE 19 26 10 14 1017.9 1017.8 0.0
22/06:30pm 20.9 19.0 15.2 70 3.4 E 19 28 10 15 1017.7 1017.6 0.0
22/06:00pm 21.4 19.2 14.8 66 3.9 ESE 20 28 11 15 1017.4 1017.3 0.0
22/05:30pm 21.3 18.2 14.5 65 4.0 SE 24 32 13 17 1017.3 1017.2 0.0
22/05:00pm 21.2 18.1 14.4 65 4.0 ESE 24 32 13 17 1017.6 1017.5 0.0
22/04:30pm 21.2 18.6 13.9 63 4.2 ESE 20 26 11 14 1017.6 1017.5 0.0
22/04:00pm 21.8 19.1 14.7 64 4.2 ESE 22 30 12 16 1017.8 1017.7 0.0
22/03:30pm 21.8 18.8 14.7 64 4.2 ESE 24 30 13 16 1018.0 1017.9 0.0
22/03:00pm 21.9 19.1 15.3 66 3.9 ESE 24 33 13 18 1018.4 1018.3 0.0
22/02:30pm 21.8 18.7 14.4 63 4.3 ESE 24 33 13 18 1018.6 1018.5 0.0
22/02:00pm 23.0 19.7 14.0 57 5.3 ESE 24 35 13 19 1018.9 1018.8 0.0
22/01:30pm 22.7 20.1 14.8 61 4.7 SE 22 33 12 18 1019.2 1019.1 0.0
22/01:00pm 22.8 20.2 14.9 61 4.7 ESE 22 32 12 17 1019.5 1019.4 0.0
22/12:30pm 22.9 20.2 14.5 59 5.0 SE 22 35 12 19 1019.8 1019.7 0.0
22/12:00pm 22.8 20.2 13.8 57 5.2 ESE 20 32 11 17 1019.9 1019.8 0.0
22/11:30am 22.8 19.8 14.9 61 4.7 SE 24 32 13 17 1020.2 1020.1 0.0
22/11:00am 22.5 19.4 13.3 56 5.3 ESE 22 32 12 17 1020.3 1020.2 0.0
22/10:30am 22.3 19.7 13.1 56 5.3 SE 19 30 10 16 1020.4 1020.3 0.0
22/10:00am 22.2 19.4 12.5 54 5.5 SE 19 26 10 14 1020.4 1020.3 0.0
22/09:30am 21.6 18.6 12.7 57 5.1 SE 20 28 11 15 1020.5 1020.4 0.0
22/09:00am 21.5 19.4 13.7 61 4.5 ESE 17 24 9 13 1020.6 1020.5 0.0
22/08:30am 21.0 19.8 13.9 64 4.1 ESE 13 24 7 13 1020.6 1020.5 0.0
22/08:00am 20.5 20.3 14.8 70 3.3 ESE 9 17 5 9 1020.5 1020.4 0.0
22/07:30am 18.5 18.7 15.7 84 1.7 WNW 9 11 5 6 1020.4 1020.3 0.0
22/07:00am 16.9 18.7 15.6 92 0.8 CALM 0 0 0 0 1020.3 1020.2 0.0
22/06:30am 15.1 16.4 14.0 93 0.6 CALM 0 0 0 0 1020.2 1020.1 0.0
22/06:00am 14.4 15.4 13.3 93 0.6 CALM 0 0 0 0 1019.9 1019.8 0.0
22/05:30am 14.4 15.4 13.1 92 0.7 CALM 0 0 0 0 1019.6 1019.5 0.0
22/05:00am 14.3 15.1 12.7 90 0.9 CALM 0 0 0 0 1019.6 1019.5 0.0
22/04:30am 15.0 16.1 13.4 90 0.9 CALM 0 0 0 0 1019.7 1019.6 0.0
22/04:00am 15.5 16.7 13.9 90 0.9 CALM 0 0 0 0 1019.6 1019.5 0.0
22/03:30am 16.0 17.4 14.5 91 0.9 CALM 0 0 0 0 1019.7 1019.6 0.0
22/03:00am 15.6 16.9 14.0 90 0.9 CALM 0 0 0 0 1019.8 1019.7 0.0
22/02:30am 16.2 17.7 14.6 90 0.9 CALM 0 0 0 0 1020.1 1020.0 0.0
22/02:00am 16.3 17.9 14.8 91 0.9 CALM 0 0 0 0 1020.3 1020.2 0.0
22/01:30am 15.8 17.1 14.0 89 1.0 CALM 0 0 0 0 1020.5 1020.4 0.0
22/01:00am 16.9 18.3 14.5 86 1.4 CALM 0 0 0 0 1020.8 1020.7 0.0
22/12:30am 17.5 17.6 14.4 82 1.8 N 7 9 4 5 1020.9 1020.8 0.0
22/12:00am 17.6 17.8 14.7 83 1.7 N 7 9 4 5 1021.3 1021.2 0.0
 
Date/Time
EDT
Temp
°C
App
Temp
°C
Dew
Point
°C
Rel
Hum
%
Delta-T
°C
Wind Press
QNH
hPa
Press
MSL
hPa
Rain since
9am
mm
Dir  Spd
km/h
Gust
km/h
Spd
kts
Gust
kts
21/11:30pm 17.9 18.2 15.0 83 1.7 NE 7 11 4 6 1021.5 1021.4 0.0
21/11:00pm 17.9 18.1 14.8 82 1.8 NE 7 11 4 6 1021.8 1021.7 0.0
21/10:30pm 18.4 18.6 14.7 79 2.1 NE 7 9 4 5 1022.0 1021.9 0.0
21/10:00pm 18.6 18.0 14.5 77 2.4 ENE 11 13 6 7 1022.1 1022.0 0.0
21/09:30pm 18.8 18.2 14.5 76 2.5 ENE 11 15 6 8 1022.0 1021.9 0.0
21/09:00pm 19.0 18.4 14.7 76 2.5 ESE 11 15 6 8 1021.8 1021.7 0.0
21/08:30pm 19.4 18.4 14.6 74 2.8 E 13 17 7 9 1021.8 1021.7 0.0
21/08:00pm 19.7 18.2 14.3 71 3.1 ENE 15 20 8 11 1021.9 1021.8 0.0
21/07:30pm 20.3 18.3 14.0 67 3.6 E 17 22 9 12 1021.8 1021.7 0.0
21/07:00pm 20.8 18.5 14.0 65 3.9 E 19 28 10 15 1021.7 1021.6 0.0
21/06:30pm 20.8 18.3 14.0 65 3.9 E 20 32 11 17 1021.6 1021.5 0.0
21/06:00pm 21.3 18.3 13.7 62 4.4 ESE 22 30 12 16 1021.4 1021.3 0.0
21/05:30pm 22.6 18.8 13.7 57 5.2 ESE 26 33 14 18 1021.4 1021.3 0.0
21/05:00pm 21.7 18.3 12.5 56 5.2 ESE 22 32 12 17 1021.6 1021.5 0.0
21/04:30pm 22.1 18.6 12.1 53 5.6 ESE 22 30 12 16 1021.7 1021.6 0.0
21/04:00pm 22.8 17.8 12.1 51 6.0 SE 30 35 16 19 1021.7 1021.6 0.0
21/03:30pm 22.4 17.8 12.4 53 5.7 SE 28 37 15 20 1022.0 1021.9 0.0
21/03:00pm 22.6 18.3 12.0 51 6.0 ESE 26 41 14 22 1022.2 1022.1 0.0
21/02:30pm 23.6 19.4 13.5 53 5.9 SE 28 35 15 19 1022.4 1022.3 0.0
21/02:00pm 22.6 18.5 12.8 54 5.6 SE 26 35 14 19 1022.7 1022.6 0.0
21/01:30pm 22.5 18.2 11.9 51 6.0 SE 26 37 14 20 1023.0 1022.9 0.0
21/01:00pm 22.6 17.8 11.7 50 6.1 SE 28 37 15 20 1023.1 1023.0 0.0
21/12:30pm 22.6 17.8 11.7 50 6.1 SE 28 35 15 19 1023.3 1023.2 0.0
21/12:00pm 22.5 18.3 12.4 52 5.7 SE 26 35 14 19 1023.6 1023.5 0.0
21/11:30am 22.5 19.6 13.0 55 5.4 SE 20 30 11 16 1023.7 1023.6 0.0
21/11:00am 21.6 18.4 11.9 54 5.4 SE 20 28 11 15 1023.9 1023.8 0.0
21/10:30am 21.3 17.8 10.8 51 5.8 SE 20 32 11 17 1024.0 1023.9 0.0
21/10:00am 21.3 18.1 11.1 52 5.6 ESE 19 30 10 16 1024.1 1024.0 0.0
21/09:30am 21.8 19.5 12.9 57 5.1 SE 17 26 9 14 1024.1 1024.0 0.0
21/09:00am 20.6 18.0 12.1 58 4.7 SSE 17 24 9 13 1024.1 1024.0 0.0
21/08:30am 20.8 18.5 11.7 56 5.1 SSE 15 19 8 10 1024.1 1024.0 0.0
21/08:00am 19.6 17.6 12.6 64 3.9 SSE 15 19 8 10 1024.0 1023.9 0.0
21/07:30am 18.5 18.8 14.4 77 2.4 WSW 6 7 3 4 1023.8 1023.7 0.0
21/07:00am 17.3 18.3 14.4 83 1.7 S 2 7 1 4 1023.5 1023.4 0.0
21/06:30am 16.9 16.3 13.6 81 1.9 SE 9 11 5 6 1023.3 1023.2 0.0
21/06:00am 15.9 17.1 13.7 87 1.2 CALM 0 0 0 0 1023.0 1022.9 0.0
21/05:30am 15.3 16.1 13.8 91 0.8 WSW 2 7 1 4 1022.8 1022.7 0.0
21/05:00am 15.3 16.6 14.0 92 0.7 CALM 0 0 0 0 1022.5 1022.4 0.0
21/04:30am 15.5 16.9 14.4 93 0.6 CALM 0 0 0 0 1022.5 1022.4 0.0
21/04:00am 15.0 15.5 13.9 93 0.6 WSW 4 7 2 4 1022.6 1022.5 0.0
21/03:30am 14.8 14.8 13.5 92 0.7 WSW 6 7 3 4 1022.8 1022.7 0.0
21/03:00am 14.7 14.6 13.4 92 0.7 WSW 6 7 3 4 1022.8 1022.7 0.0
21/02:30am 15.4 15.8 13.8 90 0.9 WSW 4 7 2 4 1022.8 1022.7 0.0
21/02:00am 15.9 17.3 14.4 91 0.9 CALM 0 0 0 0 1023.0 1022.9 0.0
21/01:30am 16.2 17.6 14.4 89 1.0 CALM 0 0 0 0 1023.2 1023.1 0.0
21/01:00am 16.4 17.9 14.6 89 1.0 CALM 0 0 0 0 1023.5 1023.4 0.0
21/12:30am 16.1 17.4 14.1 88 1.1 CALM 0 0 0 0 1023.8 1023.7 0.0
21/12:00am 15.9 17.1 13.9 88 1.1 CALM 0 0 0 0 1024.1 1024.0 0.0
 
Date/Time
EDT
Temp
°C
App
Temp
°C
Dew
Point
°C
Rel
Hum
%
Delta-T
°C
Wind Press
QNH
hPa
Press
MSL
hPa
Rain since
9am
mm
Dir  Spd
km/h
Gust
km/h
Spd
kts
Gust
kts
20/11:30pm 15.6 16.7 13.4 87 1.2 CALM 0 0 0 0 1024.2 1024.1 0.0
20/11:00pm 16.6 16.7 13.9 84 1.5 SE 6 7 3 4 1024.3 1024.2 0.0
20/10:30pm 17.6 17.3 14.5 82 1.8 SE 9 11 5 6 1024.4 1024.3 0.0

Latest Capital City Observations: Canberra | Sydney | Melbourne | Brisbane | Adelaide | Perth | Hobart | Darwin

Other Formats:

Comma delimited format used in spreadsheet applications
http://www.bom.gov.au/fwo/IDN60901/IDN60901.94776.axf

JavaScript Object Notation format (JSON) in row-major order
http://www.bom.gov.au/fwo/IDN60901/IDN60901.94776.json